Terminal Aerodrome Forecast
Issued by NWS

Home | Current Version | Previous Version | Text Only | Print | Product List | Glossary On
Versions: 1 2 3 4 5 6 7 8 9 10 11 12 13 14 15
000
FTUS42 KFFC 282329
TAFPDK
TAF
KPDK 282329Z 2900/2924 12006KT P6SM FEW060 SCT250
     FM290900 10003KT P6SM SCT025 BKN100
     FM291200 12005KT P6SM VCSH BKN010
     FM291700 15007KT 6SM -SHRA BKN020 PROB30 2918/2924 5SM TSRA
      BKN015CB=

USA.gov is the U.S. government's official web portal to all federal, state and local government web resources and services.